Time;durP1;ratioP1;P1;durP2;ratioP2;P2;SDS_P1;SDS_P2;PMS_P1;PMS_P2;Temp;Humidity;BMP_temperature;BMP_pressure;BME280_temperature;BME280_humidity;BME280_pressure;Samples;Min_cycle;Max_cycle;Signal;HPM_P1;HPM_P2
2023/11/02 00:01:01;;;;;;;17.70;7.50;;;10.00;99.90;;;;;;5015880;28;20057;-78
2023/11/02 00:03:32;;;;;;;14.93;6.65;;;10.00;99.90;;;;;;5002639;28;20848;-76
2023/11/02 00:06:21;;;;;;;13.25;6.20;;;10.00;99.90;;;;;;5004722;28;21178;-79
2023/11/02 00:09:10;;;;;;;11.77;5.63;;;10.00;99.90;;;;;;5007819;28;20647;-79
2023/11/02 00:11:53;;;;;;;11.63;5.80;;;10.00;99.90;;;;;;5004322;28;22769;-78
2023/11/02 00:14:23;;;;;;;10.73;5.15;;;10.00;99.90;;;;;;5011938;28;20485;-78
2023/11/02 00:16:53;;;;;;;11.88;5.43;;;10.10;99.90;;;;;;5000166;28;20801;-76
2023/11/02 00:19:30;;;;;;;10.73;5.00;;;10.10;99.90;;;;;;4986061;28;20049;-77
2023/11/02 00:22:06;;;;;;;12.00;4.68;;;10.10;99.90;;;;;;5003160;28;20525;-79
2023/11/02 00:24:36;;;;;;;8.35;4.20;;;10.00;99.90;;;;;;5005662;28;20113;-80
2023/11/02 00:27:05;;;;;;;9.50;4.30;;;10.00;99.90;;;;;;5025860;28;20084;-80
2023/11/02 00:29:34;;;;;;;10.38;4.80;;;10.00;99.90;;;;;;4992070;28;22246;-79
2023/11/02 00:32:03;;;;;;;9.68;4.18;;;10.00;99.90;;;;;;4992707;28;20049;-78
2023/11/02 00:34:34;;;;;;;11.43;5.60;;;10.00;99.90;;;;;;4991718;28;20176;-78
2023/11/02 00:37:03;;;;;;;14.57;6.72;;;10.00;99.90;;;;;;4985093;28;20049;-78
2023/11/02 00:39:31;;;;;;;16.75;6.97;;;10.00;99.90;;;;;;4992141;28;20462;-78
2023/11/02 00:41:59;;;;;;;19.75;7.25;;;10.00;99.90;;;;;;4992804;28;20056;-77
2023/11/02 00:44:28;;;;;;;11.45;5.88;;;9.90;99.90;;;;;;4992621;28;20052;-76
2023/11/02 00:46:57;;;;;;;17.15;6.28;;;9.90;99.90;;;;;;4997474;28;20189;-77
2023/11/02 00:49:31;;;;;;;11.48;5.70;;;9.90;99.90;;;;;;4977168;28;20076;-76
2023/11/02 00:52:06;;;;;;;14.00;5.68;;;9.90;99.90;;;;;;4976283;28;20049;-74
2023/11/02 00:54:56;;;;;;;14.23;5.47;;;9.90;99.90;;;;;;4980534;28;20427;-75
2023/11/02 00:57:28;;;;;;;7.88;4.10;;;9.90;99.90;;;;;;4989525;28;20053;-75
2023/11/02 00:59:58;;;;;;;7.93;3.80;;;9.90;99.90;;;;;;4986796;28;20045;-75
2023/11/02 01:02:35;;;;;;;8.60;4.50;;;9.90;99.90;;;;;;4976621;28;20052;-74
2023/11/02 01:05:22;;;;;;;8.57;3.83;;;9.90;99.90;;;;;;4987651;28;20064;-75
2023/11/02 01:07:51;;;;;;;8.43;2.70;;;9.80;99.90;;;;;;4997476;28;20071;-75
2023/11/02 01:10:22;;;;;;;10.02;3.38;;;9.90;99.90;;;;;;5012841;28;20048;-75
2023/11/02 01:12:51;;;;;;;6.90;2.72;;;9.90;99.90;;;;;;4993392;28;20053;-75
2023/11/02 01:15:50;;;;;;;5.78;2.47;;;9.90;99.90;;;;;;4974805;28;20420;-75
2023/11/02 01:18:19;;;;;;;5.55;2.22;;;9.90;99.90;;;;;;4987837;28;20411;-75
2023/11/02 01:20:59;;;;;;;5.75;2.30;;;9.90;99.90;;;;;;4998860;28;20052;-75
2023/11/02 01:23:28;;;;;;;8.10;2.45;;;9.80;99.90;;;;;;5004054;28;20535;-74
2023/11/02 01:25:57;;;;;;;5.22;2.20;;;9.80;99.90;;;;;;4996629;28;20174;-74
2023/11/02 01:28:52;;;;;;;7.55;2.70;;;9.90;99.90;;;;;;5004105;28;20529;-75
2023/11/02 01:31:22;;;;;;;6.28;2.50;;;9.90;99.90;;;;;;5000947;28;20586;-75
2023/11/02 01:33:58;;;;;;;5.50;2.20;;;9.90;99.90;;;;;;5006623;28;22198;-75
2023/11/02 01:36:38;;;;;;;5.78;2.20;;;9.90;99.90;;;;;;4981493;28;20060;-75
2023/11/02 01:39:51;;;;;;;6.38;2.47;;;9.90;99.90;;;;;;5007703;28;20064;-75
2023/11/02 01:42:33;;;;;;;5.75;2.45;;;9.90;99.90;;;;;;4998495;28;20306;-75
2023/11/02 01:45:07;;;;;;;4.53;2.20;;;9.90;99.90;;;;;;5008497;28;20137;-75
2023/11/02 01:47:42;;;;;;;5.72;2.20;;;9.90;99.90;;;;;;4991511;28;20548;-75
2023/11/02 01:50:18;;;;;;;5.05;1.98;;;9.90;99.90;;;;;;5000449;28;21976;-75
2023/11/02 01:53:21;;;;;;;4.13;2.20;;;9.90;99.90;;;;;;5010039;28;20059;-75
2023/11/02 01:56:12;;;;;;;6.32;2.65;;;9.90;99.90;;;;;;4991372;28;20148;-75
2023/11/02 01:58:56;;;;;;;5.30;2.53;;;9.90;99.90;;;;;;5008143;28;20075;-75
2023/11/02 02:01:27;;;;;;;7.53;2.08;;;9.90;99.90;;;;;;4981419;28;20143;-75
2023/11/02 02:04:06;;;;;;;5.40;2.00;;;9.90;99.90;;;;;;4991514;28;20057;-74
2023/11/02 02:06:47;;;;;;;5.00;2.45;;;9.90;99.90;;;;;;4997873;28;20096;-73
2023/11/02 02:09:32;;;;;;;3.47;1.77;;;9.90;99.90;;;;;;4981754;28;20060;-74
2023/11/02 02:12:07;;;;;;;5.22;1.77;;;9.90;99.90;;;;;;4981905;28;20053;-74
2023/11/02 02:14:52;;;;;;;5.43;2.00;;;9.90;99.90;;;;;;4980736;28;20099;-74
2023/11/02 02:17:28;;;;;;;5.57;2.60;;;9.90;99.90;;;;;;4982469;28;21996;-74
2023/11/02 02:20:07;;;;;;;5.45;2.33;;;9.90;99.90;;;;;;4984028;28;20132;-74
2023/11/02 02:22:43;;;;;;;7.70;2.20;;;9.90;99.90;;;;;;4990760;28;20187;-74
2023/11/02 02:25:34;;;;;;;4.57;2.13;;;9.90;99.90;;;;;;4989281;28;20071;-73
2023/11/02 02:28:26;;;;;;;5.55;1.98;;;9.80;99.90;;;;;;4983776;28;20053;-74
2023/11/02 02:31:13;;;;;;;6.38;2.47;;;9.80;99.90;;;;;;5000088;28;20501;-74
2023/11/02 02:34:22;;;;;;;8.80;3.00;;;9.80;99.90;;;;;;4987191;28;20513;-74
2023/11/02 02:37:04;;;;;;;8.13;3.53;;;9.80;99.90;;;;;;5018211;28;20077;-73
2023/11/02 02:39:38;;;;;;;8.43;3.13;;;9.90;99.90;;;;;;4981830;28;20102;-73
2023/11/02 02:42:08;;;;;;;7.05;2.60;;;9.90;99.90;;;;;;5005170;28;20095;-73
2023/11/02 02:44:39;;;;;;;5.50;2.13;;;9.90;99.90;;;;;;4999734;28;20053;-74
2023/11/02 02:47:09;;;;;;;6.60;2.25;;;9.80;99.90;;;;;;4990135;28;20717;-73
2023/11/02 02:49:42;;;;;;;6.80;2.08;;;9.80;99.90;;;;;;4990864;28;20148;-73
2023/11/02 02:52:17;;;;;;;4.63;2.42;;;9.80;99.90;;;;;;5005839;28;20508;-73
2023/11/02 02:54:50;;;;;;;4.88;2.25;;;9.70;99.90;;;;;;4984691;28;20463;-73
2023/11/02 02:57:20;;;;;;;7.65;2.08;;;9.80;99.90;;;;;;4973032;28;20293;-73
2023/11/02 02:59:53;;;;;;;3.63;1.67;;;9.80;99.90;;;;;;4972021;28;20103;-73
2023/11/02 03:02:26;;;;;;;4.13;1.83;;;9.70;99.90;;;;;;4997631;28;20505;-73
2023/11/02 03:04:57;;;;;;;5.10;1.85;;;9.70;99.90;;;;;;4997747;28;20061;-74
2023/11/02 03:07:30;;;;;;;4.60;2.13;;;9.70;99.90;;;;;;4998797;28;20057;-73
2023/11/02 03:10:02;;;;;;;6.82;2.22;;;9.70;99.90;;;;;;4998922;28;20900;-73
2023/11/02 03:12:34;;;;;;;4.97;1.77;;;9.60;99.90;;;;;;4985038;28;20049;-75
2023/11/02 03:15:07;;;;;;;4.93;1.88;;;9.60;99.90;;;;;;5017453;28;20418;-75
2023/11/02 03:17:58;;;;;;;5.68;2.28;;;9.60;99.90;;;;;;4990661;28;20057;-75
2023/11/02 03:20:27;;;;;;;4.97;2.20;;;9.60;99.90;;;;;;4998820;28;20870;-75
2023/11/02 03:23:03;;;;;;;4.18;2.00;;;9.60;99.90;;;;;;4992305;28;20080;-75
2023/11/02 03:25:47;;;;;;;6.65;2.47;;;9.50;99.90;;;;;;4992085;28;20095;-75
2023/11/02 03:28:28;;;;;;;5.82;2.70;;;9.50;99.90;;;;;;4996586;28;20083;-75
2023/11/02 03:31:11;;;;;;;4.70;2.10;;;9.40;99.90;;;;;;5003186;28;20079;-75
2023/11/02 03:33:48;;;;;;;5.75;1.98;;;9.50;99.90;;;;;;5006956;28;20049;-75
2023/11/02 03:36:22;;;;;;;5.00;2.03;;;9.50;99.90;;;;;;4998158;28;20598;-75
2023/11/02 03:39:10;;;;;;;3.80;2.10;;;9.40;99.90;;;;;;5007434;28;20052;-75
2023/11/02 03:41:54;;;;;;;4.38;1.60;;;9.40;99.90;;;;;;4989830;28;20055;-75
2023/11/02 03:44:36;;;;;;;4.05;1.30;;;9.40;99.90;;;;;;5008356;28;20071;-75
2023/11/02 03:47:22;;;;;;;3.92;1.50;;;9.50;99.90;;;;;;5007220;28;20059;-75
2023/11/02 03:50:01;;;;;;;6.18;1.48;;;9.40;99.90;;;;;;5006071;28;20052;-75
2023/11/02 03:52:36;;;;;;;5.38;1.88;;;9.40;99.90;;;;;;5007356;28;20044;-75
2023/11/02 03:55:17;;;;;;;3.95;1.58;;;9.40;99.90;;;;;;4990419;28;22585;-75
2023/11/02 03:57:56;;;;;;;5.15;1.80;;;9.30;99.90;;;;;;5007837;28;20054;-75
2023/11/02 04:00:25;;;;;;;4.53;2.38;;;9.30;99.90;;;;;;5008832;28;20049;-75
2023/11/02 04:02:59;;;;;;;7.07;3.08;;;9.30;99.90;;;;;;4990202;28;20210;-75
2023/11/02 04:05:31;;;;;;;7.15;3.50;;;9.30;99.90;;;;;;5008158;28;20059;-75
2023/11/02 04:08:10;;;;;;;6.65;3.03;;;9.20;99.90;;;;;;5004842;28;20831;-75
2023/11/02 04:10:49;;;;;;;6.35;3.10;;;9.30;99.90;;;;;;5007153;28;20057;-75
2023/11/02 04:13:23;;;;;;;4.78;2.33;;;9.20;99.90;;;;;;5007200;28;20728;-75
2023/11/02 04:15:53;;;;;;;7.88;2.97;;;9.20;99.90;;;;;;4978566;28;20119;-75
2023/11/02 04:18:22;;;;;;;4.18;2.70;;;9.20;99.90;;;;;;5006784;28;20205;-75
2023/11/02 04:20:51;;;;;;;7.75;3.08;;;9.20;99.90;;;;;;5007135;28;20049;-74
2023/11/02 04:23:21;;;;;;;7.15;3.65;;;9.20;99.90;;;;;;5018851;28;20385;-74
2023/11/02 04:25:54;;;;;;;7.50;2.92;;;9.10;99.90;;;;;;4997629;28;20098;-74
2023/11/02 04:28:23;;;;;;;6.78;2.95;;;9.10;99.90;;;;;;4998433;28;20086;-74
2023/11/02 04:30:51;;;;;;;4.63;2.20;;;9.10;99.90;;;;;;4995784;28;20052;-74
2023/11/02 04:33:20;;;;;;;5.43;2.20;;;9.10;99.90;;;;;;4979734;28;20057;-74
2023/11/02 04:35:48;;;;;;;5.30;2.20;;;9.10;99.90;;;;;;4996980;28;20045;-74
2023/11/02 04:38:17;;;;;;;5.05;2.28;;;9.10;99.90;;;;;;5000805;28;20528;-73
2023/11/02 04:40:45;;;;;;;5.55;2.10;;;9.10;99.90;;;;;;4973314;28;20063;-73
2023/11/02 04:43:15;;;;;;;5.45;2.40;;;9.10;99.90;;;;;;4999423;28;20053;-74
2023/11/02 04:45:43;;;;;;;3.47;1.63;;;9.10;99.90;;;;;;4996791;28;20056;-73
2023/11/02 04:48:12;;;;;;;4.18;2.08;;;9.10;99.90;;;;;;4970764;28;20092;-73
2023/11/02 04:50:41;;;;;;;3.25;1.63;;;9.00;99.90;;;;;;4999529;28;20417;-73
2023/11/02 04:53:09;;;;;;;4.25;2.00;;;9.10;99.90;;;;;;4999796;28;20187;-73
2023/11/02 04:55:40;;;;;;;3.85;1.85;;;9.00;99.90;;;;;;4999363;28;20045;-74
2023/11/02 04:58:08;;;;;;;5.15;1.85;;;9.00;99.90;;;;;;4998132;28;20052;-73
2023/11/02 05:00:38;;;;;;;7.22;3.22;;;9.00;99.90;;;;;;4996380;28;20142;-74
2023/11/02 05:03:07;;;;;;;7.18;2.67;;;9.00;99.90;;;;;;5011714;28;20049;-73
2023/11/02 05:05:35;;;;;;;5.47;2.63;;;9.00;99.90;;;;;;5031979;28;20115;-73
2023/11/02 05:08:08;;;;;;;6.40;2.67;;;9.00;99.90;;;;;;5017530;28;20033;-73
2023/11/02 05:10:36;;;;;;;;;;;8.90;99.90;;;;;;4997270;28;20076;-73
2023/11/02 05:13:05;;;;;;;8.73;3.30;;;9.00;99.90;;;;;;5003124;28;20681;-73
2023/11/02 05:15:33;;;;;;;5.43;2.90;;;9.00;99.90;;;;;;5001817;28;22334;-74
2023/11/02 05:18:03;;;;;;;8.93;3.90;;;9.00;99.90;;;;;;4999726;28;20409;-73
2023/11/02 05:20:34;;;;;;;13.18;3.40;;;9.00;99.90;;;;;;5021458;28;20046;-74
2023/11/02 05:23:02;;;;;;;10.07;3.53;;;9.00;99.90;;;;;;4999295;28;20045;-73
2023/11/02 05:25:31;;;;;;;8.38;3.47;;;8.90;99.90;;;;;;4984519;28;20056;-73
2023/11/02 05:27:59;;;;;;;5.85;3.50;;;8.90;99.90;;;;;;5002276;28;20627;-74
2023/11/02 05:30:28;;;;;;;6.70;3.47;;;8.90;99.90;;;;;;4999674;28;20052;-73
2023/11/02 05:32:56;;;;;;;10.13;3.45;;;8.90;99.90;;;;;;5004314;28;20037;-78
2023/11/02 05:35:26;;;;;;;6.10;2.80;;;8.90;99.90;;;;;;4997200;28;20052;-78
2023/11/02 05:37:54;;;;;;;7.43;3.13;;;8.80;99.90;;;;;;5007922;28;20627;-77
2023/11/02 05:40:23;;;;;;;7.38;3.20;;;8.80;99.90;;;;;;5006625;28;20611;-77
2023/11/02 05:42:51;;;;;;;8.27;3.30;;;8.90;99.90;;;;;;5004591;28;20056;-76
2023/11/02 05:45:21;;;;;;;7.03;3.05;;;8.90;99.90;;;;;;5003872;28;20091;-78
2023/11/02 05:47:49;;;;;;;6.45;2.42;;;8.90;99.90;;;;;;4988142;28;20048;-79
2023/11/02 05:50:18;;;;;;;8.55;2.92;;;8.90;99.90;;;;;;5007977;28;20578;-78
2023/11/02 05:52:49;;;;;;;5.88;2.40;;;8.90;99.90;;;;;;4977780;28;20067;-78
2023/11/02 05:55:17;;;;;;;5.25;2.50;;;8.80;99.90;;;;;;4994850;28;20053;-78
2023/11/02 05:57:45;;;;;;;5.45;3.05;;;8.80;99.90;;;;;;5007087;28;20051;-77
2023/11/02 06:00:16;;;;;;;7.03;3.55;;;8.80;99.90;;;;;;4985311;28;20056;-77
2023/11/02 06:02:44;;;;;;;5.25;2.88;;;8.80;99.90;;;;;;4997224;28;20830;-75
2023/11/02 06:05:12;;;;;;;7.40;2.88;;;8.80;99.90;;;;;;4990115;28;20064;-77
2023/11/02 06:07:41;;;;;;;5.05;2.63;;;8.80;99.90;;;;;;5001645;28;20048;-77
2023/11/02 06:10:11;;;;;;;6.90;3.20;;;8.70;99.90;;;;;;5026096;28;20063;-78
2023/11/02 06:12:40;;;;;;;4.80;2.40;;;8.70;99.90;;;;;;5016535;28;20100;-78
2023/11/02 06:15:10;;;;;;;7.68;2.80;;;8.70;99.90;;;;;;5007042;28;20041;-77
2023/11/02 06:17:39;;;;;;;7.43;3.03;;;8.80;99.90;;;;;;5017728;28;20057;-76
2023/11/02 06:20:09;;;;;;;5.65;2.83;;;8.70;99.90;;;;;;5022560;28;20045;-76
2023/11/02 06:22:37;;;;;;;6.00;3.05;;;8.80;99.90;;;;;;5015626;28;20049;-76
2023/11/02 06:25:06;;;;;;;9.52;3.58;;;8.70;99.90;;;;;;5005252;28;20041;-75
2023/11/02 06:27:36;;;;;;;7.00;3.40;;;8.80;99.90;;;;;;4984590;28;20072;-75
2023/11/02 06:30:05;;;;;;;6.50;3.10;;;8.90;99.90;;;;;;4982288;28;20083;-77
2023/11/02 06:32:33;;;;;;;7.32;3.10;;;8.90;99.90;;;;;;4990483;28;20096;-75
2023/11/02 06:35:02;;;;;;;7.30;3.30;;;9.00;99.90;;;;;;5002394;28;20052;-77
2023/11/02 06:37:30;;;;;;;7.85;3.05;;;9.00;99.90;;;;;;4997731;28;20060;-76
2023/11/02 06:39:59;;;;;;;7.63;3.50;;;9.00;99.90;;;;;;5005455;28;20053;-77
2023/11/02 06:42:28;;;;;;;6.47;3.38;;;9.10;99.90;;;;;;5002223;28;22583;-72
2023/11/02 06:44:59;;;;;;;11.50;3.47;;;9.10;99.90;;;;;;4986435;28;20067;-72
2023/11/02 06:47:28;;;;;;;8.00;2.88;;;9.20;99.90;;;;;;5020728;28;20114;-71
2023/11/02 06:49:56;;;;;;;7.47;3.28;;;9.20;99.90;;;;;;5012888;28;22696;-72
2023/11/02 06:52:25;;;;;;;9.15;3.50;;;9.20;99.90;;;;;;4997983;28;20045;-72
2023/11/02 06:54:53;;;;;;;8.90;4.00;;;9.20;99.90;;;;;;4973170;28;20049;-72
2023/11/02 06:57:22;;;;;;;5.43;2.67;;;9.20;99.90;;;;;;5028108;28;20580;-72
2023/11/02 06:59:50;;;;;;;5.97;3.10;;;9.30;99.90;;;;;;4998408;28;20619;-72
2023/11/02 07:02:22;;;;;;;8.65;3.20;;;9.50;99.90;;;;;;4967265;28;20879;-71
2023/11/02 07:04:55;;;;;;;8.18;4.30;;;9.50;99.90;;;;;;4994557;28;20048;-73
2023/11/02 07:07:23;;;;;;;8.73;4.15;;;9.40;99.90;;;;;;5014825;28;20664;-74
2023/11/02 07:09:54;;;;;;;8.45;4.28;;;9.40;99.90;;;;;;4980089;28;20804;-73
2023/11/02 07:12:22;;;;;;;10.20;4.57;;;9.40;99.90;;;;;;4998225;28;20049;-74
2023/11/02 07:14:51;;;;;;;7.82;3.47;;;9.50;99.90;;;;;;4996386;28;22136;-73
2023/11/02 07:17:20;;;;;;;7.05;3.17;;;9.60;99.90;;;;;;4999316;28;20060;-74
2023/11/02 07:19:49;;;;;;;6.30;3.47;;;9.80;99.90;;;;;;4968634;28;20045;-74
2023/11/02 07:22:17;;;;;;;7.18;3.53;;;9.90;99.90;;;;;;5000097;28;20045;-74
2023/11/02 07:24:46;;;;;;;6.95;3.38;;;9.90;99.90;;;;;;4996501;28;20044;-74
2023/11/02 07:27:14;;;;;;;7.40;2.95;;;10.00;99.90;;;;;;5024368;28;20927;-74
2023/11/02 07:29:44;;;;;;;6.18;3.10;;;10.10;99.90;;;;;;5015217;28;20417;-73
2023/11/02 07:32:12;;;;;;;6.00;2.38;;;10.20;99.90;;;;;;4977329;28;20106;-73
2023/11/02 07:34:42;;;;;;;8.30;3.47;;;10.30;99.90;;;;;;4995392;28;20435;-74
2023/11/02 07:37:11;;;;;;;6.50;2.90;;;10.30;99.90;;;;;;5007488;28;20144;-75
2023/11/02 07:39:39;;;;;;;5.72;2.75;;;10.30;99.90;;;;;;5020933;28;20536;-74
2023/11/02 07:42:08;;;;;;;6.82;2.83;;;10.30;99.90;;;;;;4979124;28;20136;-74
2023/11/02 07:44:38;;;;;;;7.85;3.17;;;10.40;99.90;;;;;;4992074;28;20501;-74
2023/11/02 07:47:07;;;;;;;6.35;2.85;;;10.50;99.90;;;;;;5014460;28;20536;-75
2023/11/02 07:49:37;;;;;;;9.20;3.30;;;10.70;99.90;;;;;;4988865;28;20049;-74
2023/11/02 07:52:08;;;;;;;6.15;2.63;;;10.70;99.90;;;;;;4999219;28;20053;-74
2023/11/02 07:54:37;;;;;;;4.80;2.30;;;10.70;99.90;;;;;;4980698;28;20171;-74
2023/11/02 07:57:08;;;;;;;7.15;2.88;;;10.80;99.90;;;;;;4971059;28;20653;-74
2023/11/02 07:59:37;;;;;;;7.35;2.70;;;10.90;99.90;;;;;;4995618;28;20059;-74
2023/11/02 08:02:06;;;;;;;4.97;2.50;;;11.00;99.90;;;;;;5013346;28;20049;-74
2023/11/02 08:04:34;;;;;;;5.97;2.70;;;11.00;99.90;;;;;;4998505;28;20052;-74
2023/11/02 08:07:03;;;;;;;5.28;2.40;;;11.10;99.90;;;;;;4946766;28;22243;-74
2023/11/02 08:09:33;;;;;;;6.50;2.65;;;11.20;99.90;;;;;;4992181;28;20173;-74
2023/11/02 08:12:02;;;;;;;5.47;2.70;;;11.20;99.90;;;;;;4994571;28;20167;-74
2023/11/02 08:14:31;;;;;;;5.82;2.30;;;11.30;99.90;;;;;;4994448;28;20040;-74
2023/11/02 08:16:59;;;;;;;5.97;3.30;;;11.30;99.90;;;;;;4983200;28;20037;-74
2023/11/02 08:19:28;;;;;;;7.15;3.33;;;11.40;99.90;;;;;;4992402;28;20206;-75
2023/11/02 08:21:56;;;;;;;5.63;2.38;;;11.50;99.90;;;;;;5004002;28;20174;-74
2023/11/02 08:24:25;;;;;;;5.18;2.53;;;11.60;99.90;;;;;;4971055;28;20140;-73
2023/11/02 08:26:54;;;;;;;4.95;2.47;;;11.70;99.90;;;;;;4973477;28;20048;-73
2023/11/02 08:29:23;;;;;;;3.58;2.20;;;11.80;99.90;;;;;;4980456;28;20544;-74
2023/11/02 08:31:51;;;;;;;5.38;2.65;;;11.70;99.90;;;;;;4993566;28;20049;-75
2023/11/02 08:34:20;;;;;;;6.00;2.38;;;11.70;99.90;;;;;;4997884;28;20394;-74
2023/11/02 08:36:48;;;;;;;7.20;3.95;;;12.00;99.90;;;;;;4996930;28;20817;-74
2023/11/02 08:39:17;;;;;;;8.15;3.63;;;12.00;99.90;;;;;;5005703;28;20049;-75
2023/11/02 08:41:45;;;;;;;8.80;3.63;;;12.10;99.90;;;;;;5011190;28;20048;-75
2023/11/02 08:44:15;;;;;;;5.65;3.10;;;12.20;99.90;;;;;;4996301;28;20080;-74
2023/11/02 08:46:44;;;;;;;5.90;2.50;;;12.20;99.90;;;;;;4995737;28;20053;-75
2023/11/02 08:49:14;;;;;;;6.50;2.08;;;12.40;99.90;;;;;;4992693;28;20532;-74
2023/11/02 08:51:44;;;;;;;7.45;2.72;;;12.30;99.90;;;;;;4993096;28;20049;-75
2023/11/02 08:54:13;;;;;;;5.45;2.03;;;12.50;99.90;;;;;;5010161;28;20056;-74
2023/11/02 08:56:42;;;;;;;5.40;2.25;;;12.50;99.90;;;;;;5010413;28;20138;-74
2023/11/02 08:59:10;;;;;;;5.45;2.30;;;12.60;99.90;;;;;;4979722;28;20060;-75
2023/11/02 09:01:42;;;;;;;6.60;3.78;;;12.50;99.90;;;;;;4999765;28;20111;-74
2023/11/02 09:04:10;;;;;;;4.65;2.35;;;12.50;99.90;;;;;;5002117;28;20041;-77
2023/11/02 09:06:39;;;;;;;6.38;2.85;;;12.70;99.90;;;;;;5000086;28;20053;-78
2023/11/02 09:09:11;;;;;;;5.43;3.40;;;12.70;99.90;;;;;;5000381;28;20053;-78
2023/11/02 09:11:39;;;;;;;7.03;2.58;;;12.80;99.90;;;;;;5001906;28;22225;-78
2023/11/02 09:14:07;;;;;;;3.83;2.20;;;12.90;99.90;;;;;;5009595;28;20306;-78
2023/11/02 09:16:36;;;;;;;4.10;2.33;;;13.00;99.90;;;;;;4997602;28;20056;-78
2023/11/02 09:19:06;;;;;;;5.90;2.40;;;13.10;99.90;;;;;;4981022;28;20061;-77
2023/11/02 09:21:38;;;;;;;4.93;2.28;;;13.20;99.90;;;;;;4995215;28;20114;-78
2023/11/02 09:24:07;;;;;;;4.35;2.50;;;13.20;99.90;;;;;;4997334;28;20122;-80
2023/11/02 09:26:35;;;;;;;3.85;1.85;;;13.10;99.90;;;;;;5024344;28;20111;-77
2023/11/02 09:29:03;;;;;;;7.88;2.25;;;13.30;99.90;;;;;;4999926;28;20670;-77
2023/11/02 09:31:32;;;;;;;3.05;1.70;;;13.40;99.90;;;;;;4997441;28;20057;-76
2023/11/02 09:34:01;;;;;;;6.15;2.17;;;13.50;99.90;;;;;;4999146;28;20060;-77
2023/11/02 09:36:31;;;;;;;4.90;2.70;;;13.70;99.90;;;;;;4995188;28;20052;-78
2023/11/02 09:39:03;;;;;;;4.80;2.15;;;13.70;99.90;;;;;;4997137;28;20048;-77
2023/11/02 09:41:31;;;;;;;4.97;2.08;;;13.90;99.90;;;;;;4993512;28;20045;-77
2023/11/02 09:44:01;;;;;;;5.45;2.05;;;13.90;99.90;;;;;;4993900;28;20053;-77
2023/11/02 09:46:29;;;;;;;3.13;1.90;;;13.90;99.90;;;;;;4989797;28;20502;-78
2023/11/02 09:48:57;;;;;;;5.05;2.47;;;14.10;99.90;;;;;;4998615;28;20056;-79
2023/11/02 09:51:27;;;;;;;5.57;1.77;;;14.20;99.90;;;;;;4989058;28;20060;-78
2023/11/02 09:53:58;;;;;;;3.53;2.13;;;14.20;99.90;;;;;;5001120;28;20183;-79
2023/11/02 09:56:28;;;;;;;6.72;2.17;;;14.30;99.90;;;;;;4998632;28;20060;-76
2023/11/02 09:58:59;;;;;;;7.07;2.08;;;14.40;99.90;;;;;;4999874;28;20045;-78
2023/11/02 10:01:28;;;;;;;6.10;2.03;;;14.50;99.90;;;;;;5034434;28;20525;-80
2023/11/02 10:03:56;;;;;;;10.38;1.83;;;14.50;99.90;;;;;;5000699;28;20041;-79
2023/11/02 10:06:26;;;;;;;5.05;1.70;;;14.60;99.90;;;;;;4998394;28;20514;-76
2023/11/02 10:08:56;;;;;;;3.80;1.55;;;14.60;99.90;;;;;;5006831;28;22527;-78
2023/11/02 10:11:25;;;;;;;5.38;2.05;;;14.80;99.90;;;;;;4972894;28;20482;-79
2023/11/02 10:13:54;;;;;;;3.25;1.58;;;14.90;99.90;;;;;;4991546;28;20060;-78
2023/11/02 10:16:23;;;;;;;6.10;1.90;;;14.90;99.90;;;;;;5000201;28;20084;-78
2023/11/02 10:18:52;;;;;;;3.05;1.80;;;15.10;99.90;;;;;;5018621;28;20149;-79
2023/11/02 10:21:21;;;;;;;4.45;1.85;;;15.10;99.90;;;;;;4972257;28;21263;-78
2023/11/02 10:23:51;;;;;;;2.60;1.55;;;15.20;99.90;;;;;;4997175;28;20049;-79
2023/11/02 10:26:21;;;;;;;2.90;1.55;;;15.30;99.90;;;;;;5000709;28;20052;-78
2023/11/02 10:28:53;;;;;;;8.15;1.63;;;15.30;99.90;;;;;;4982688;28;20139;-78
2023/11/02 10:31:24;;;;;;;6.68;2.90;;;15.40;99.90;;;;;;4975184;28;20045;-78
2023/11/02 10:33:53;;;;;;;8.65;1.80;;;15.40;99.90;;;;;;4980949;28;20067;-76
2023/11/02 10:36:21;;;;;;;4.60;1.60;;;15.50;99.90;;;;;;5001549;28;20045;-78
2023/11/02 10:38:50;;;;;;;3.95;1.50;;;15.60;99.90;;;;;;4996892;28;20162;-77
2023/11/02 10:41:21;;;;;;;3.25;1.50;;;15.60;99.90;;;;;;4987693;28;20097;-79
2023/11/02 10:43:50;;;;;;;4.97;2.05;;;15.70;99.90;;;;;;5013518;28;22020;-78
2023/11/02 10:46:20;;;;;;;4.55;1.48;;;15.80;99.90;;;;;;4985534;28;20045;-77
2023/11/02 10:48:54;;;;;;;4.35;1.58;;;15.70;99.90;;;;;;5010960;28;22217;-79
2023/11/02 10:51:25;;;;;;;4.20;1.55;;;15.80;99.90;;;;;;5000371;28;20190;-78
2023/11/02 10:54:10;;;;;;;6.53;1.73;;;15.80;99.90;;;;;;4998713;28;20110;-79
2023/11/02 10:56:43;;;;;;;3.72;1.52;;;15.90;99.90;;;;;;4999409;28;20254;-78
2023/11/02 10:59:12;;;;;;;6.07;1.75;;;16.00;99.90;;;;;;4997246;28;20099;-79
2023/11/02 11:01:43;;;;;;;3.78;2.50;;;16.10;99.80;;;;;;4997198;28;20048;-78
2023/11/02 11:04:12;;;;;;;4.53;1.70;;;16.20;99.90;;;;;;5017362;28;20075;-80
2023/11/02 11:06:42;;;;;;;3.65;1.40;;;16.30;99.70;;;;;;4997649;28;20055;-78
2023/11/02 11:09:13;;;;;;;5.25;1.40;;;16.30;99.30;;;;;;5005356;28;20179;-79
2023/11/02 11:11:44;;;;;;;4.22;1.30;;;16.30;98.90;;;;;;5013159;28;20425;-80
2023/11/02 11:14:13;;;;;;;3.13;0.98;;;16.40;99.40;;;;;;4982452;28;22882;-74
2023/11/02 11:16:41;;;;;;;5.70;1.50;;;16.50;98.90;;;;;;4971305;28;20632;-75
2023/11/02 11:19:11;;;;;;;3.75;1.48;;;16.60;98.60;;;;;;5008714;28;20167;-78
2023/11/02 11:21:41;;;;;;;7.85;1.70;;;16.60;98.70;;;;;;5006045;28;20101;-78
2023/11/02 11:24:11;;;;;;;5.78;1.70;;;16.70;97.60;;;;;;5002298;28;20053;-75
2023/11/02 11:26:50;;;;;;;3.22;1.15;;;16.80;97.90;;;;;;4974960;28;20203;-75
2023/11/02 11:29:36;;;;;;;4.90;0.82;;;16.90;97.50;;;;;;5015236;28;20090;-75
2023/11/02 11:32:05;;;;;;;3.03;1.08;;;17.00;96.30;;;;;;5013103;28;20187;-75
2023/11/02 11:35:08;;;;;;;2.95;0.70;;;17.00;95.60;;;;;;5000673;28;20195;-75
2023/11/02 11:37:41;;;;;;;2.83;0.75;;;17.10;94.80;;;;;;5011805;28;20591;-73
2023/11/02 11:40:24;;;;;;;;;;;17.10;94.50;;;;;;5012447;28;20053;-76
2023/11/02 11:43:00;;;;;;;3.65;0.88;;;17.20;94.10;;;;;;5014705;28;19924;-74
2023/11/02 11:45:31;;;;;;;6.30;1.05;;;17.20;93.80;;;;;;4999553;28;20060;-75
2023/11/02 11:48:02;;;;;;;1.90;0.80;;;17.20;93.80;;;;;;5001183;28;20459;-74
2023/11/02 11:50:35;;;;;;;2.85;0.65;;;17.20;93.70;;;;;;4999429;28;20133;-76
2023/11/02 11:53:25;;;;;;;3.60;1.17;;;17.10;94.10;;;;;;5023069;28;20037;-78
2023/11/02 11:55:56;;;;;;;5.68;2.05;;;17.10;93.90;;;;;;4968813;28;22287;-74
2023/11/02 11:58:49;;;;;;;3.40;1.13;;;16.90;93.90;;;;;;4998985;28;20053;-75
2023/11/02 12:01:19;;;;;;;3.88;1.42;;;17.00;94.00;;;;;;4998682;28;20679;-75
2023/11/02 12:03:48;;;;;;;2.58;1.25;;;16.90;93.80;;;;;;4987757;28;20044;-74
2023/11/02 12:06:36;;;;;;;7.25;1.23;;;16.90;94.20;;;;;;4997732;28;20567;-76
2023/11/02 12:09:09;;;;;;;2.15;0.90;;;16.80;94.10;;;;;;5000976;28;20045;-76
2023/11/02 12:11:38;;;;;;;3.63;1.25;;;16.80;93.80;;;;;;5001644;28;20045;-74
2023/11/02 12:14:15;;;;;;;3.30;1.23;;;16.90;94.10;;;;;;5000182;28;20798;-75
2023/11/02 12:16:44;;;;;;;4.10;1.17;;;16.80;94.30;;;;;;4998857;28;20425;-76
2023/11/02 12:19:12;;;;;;;5.80;1.75;;;16.90;94.50;;;;;;5000754;28;20091;-75
2023/11/02 12:21:41;;;;;;;2.25;0.60;;;17.00;94.40;;;;;;5000614;28;20152;-75
2023/11/02 12:24:11;;;;;;;2.70;0.90;;;17.00;94.20;;;;;;4997313;28;20053;-76
2023/11/02 12:26:40;;;;;;;2.60;0.47;;;17.10;93.70;;;;;;5014075;28;20096;-75
2023/11/02 12:29:11;;;;;;;1.88;0.50;;;17.10;93.40;;;;;;4982688;28;22273;-76
2023/11/02 12:31:41;;;;;;;2.33;0.40;;;17.10;93.00;;;;;;5004225;28;20080;-75
2023/11/02 12:34:12;;;;;;;3.35;0.60;;;17.10;91.90;;;;;;5011209;28;20114;-76
2023/11/02 12:36:42;;;;;;;3.83;0.50;;;17.10;92.30;;;;;;4997269;28;20410;-76
2023/11/02 12:39:15;;;;;;;5.82;0.70;;;17.10;92.90;;;;;;4997602;28;20079;-77
2023/11/02 12:41:45;;;;;;;2.08;0.60;;;17.00;92.80;;;;;;4998957;28;20830;-76
2023/11/02 12:44:20;;;;;;;2.88;0.57;;;16.90;92.50;;;;;;5009914;28;20049;-77
2023/11/02 12:46:52;;;;;;;1.85;0.40;;;16.90;92.20;;;;;;5000395;28;20052;-77
2023/11/02 12:49:25;;;;;;;2.25;0.70;;;16.90;91.60;;;;;;4989277;28;20139;-76
2023/11/02 12:52:06;;;;;;;2.03;0.40;;;17.10;91.90;;;;;;4996978;28;20068;-76
2023/11/02 12:54:36;;;;;;;1.60;0.30;;;17.20;90.80;;;;;;4998250;28;20048;-76
2023/11/02 12:57:06;;;;;;;2.78;0.50;;;17.30;90.20;;;;;;4970883;28;20743;-76
2023/11/02 12:59:40;;;;;;;4.35;0.40;;;17.30;90.00;;;;;;4989137;28;20167;-76
2023/11/02 13:02:11;;;;;;;1.98;0.32;;;17.20;89.60;;;;;;5013980;28;22500;-77
2023/11/02 13:04:52;;;;;;;2.35;0.38;;;17.20;90.20;;;;;;4980449;28;20053;-78
2023/11/02 13:07:22;;;;;;;2.63;0.60;;;17.20;87.70;;;;;;4971232;28;22467;-76
2023/11/02 13:10:02;;;;;;;2.40;0.28;;;17.10;88.90;;;;;;5001444;28;22069;-79
2023/11/02 13:12:30;;;;;;;1.63;0.22;;;17.10;88.90;;;;;;4999810;28;22428;-77
2023/11/02 13:15:00;;;;;;;1.10;0.30;;;17.10;89.20;;;;;;4999844;28;20974;-76
2023/11/02 13:17:28;;;;;;;2.58;0.30;;;17.00;89.10;;;;;;5000581;28;20056;-77